Time;durP1;ratioP1;P1;durP2;ratioP2;P2;SDS_P1;SDS_P2;PMS_P1;PMS_P2;Temp;Humidity;BMP_temperature;BMP_pressure;BME280_temperature;BME280_humidity;BME280_pressure;Samples;Min_cycle;Max_cycle;Signal;HPM_P1;HPM_P2
2023/05/04 00:00:32;;;;;;;1.20;1.20;;;19.50;67.50;;;;;;5062218;28;43654;-70
2023/05/04 00:03:00;;;;;;;1.20;1.20;;;19.40;67.70;;;;;;5067355;28;43339;-70
2023/05/04 00:05:30;;;;;;;1.30;1.30;;;19.50;67.80;;;;;;5061353;28;43367;-69
2023/05/04 00:07:58;;;;;;;1.30;1.30;;;19.40;67.50;;;;;;5062096;28;43549;-70
2023/05/04 00:10:26;;;;;;;1.13;1.13;;;19.50;67.60;;;;;;5063783;28;43954;-69
2023/05/04 00:12:56;;;;;;;1.20;1.20;;;19.40;67.60;;;;;;5064536;28;43869;-69
2023/05/04 00:15:24;;;;;;;1.10;1.10;;;19.40;67.70;;;;;;5057233;28;43387;-69
2023/05/04 00:17:52;;;;;;;1.10;1.10;;;19.40;67.90;;;;;;5062081;28;43889;-69
2023/05/04 00:20:20;;;;;;;1.20;1.20;;;19.50;67.90;;;;;;5063770;28;43692;-69
2023/05/04 00:22:48;;;;;;;1.27;1.27;;;19.50;67.70;;;;;;5064369;28;43848;-69
2023/05/04 00:25:16;;;;;;;1.27;1.27;;;19.70;67.30;;;;;;5062082;28;43433;-70
2023/05/04 00:27:44;;;;;;;1.30;1.30;;;19.80;66.90;;;;;;5061650;28;43526;-70
2023/05/04 00:30:14;;;;;;;1.27;1.27;;;19.80;66.70;;;;;;5060634;28;46014;-70
2023/05/04 00:32:42;;;;;;;1.30;1.30;;;19.80;66.60;;;;;;5057154;28;43467;-69
2023/05/04 00:35:10;;;;;;;1.23;1.23;;;19.70;66.60;;;;;;5061509;28;43495;-69
2023/05/04 00:37:38;;;;;;;1.27;1.27;;;19.60;66.70;;;;;;5059851;28;43516;-69
2023/05/04 00:40:07;;;;;;;1.30;1.30;;;19.60;67.20;;;;;;5056739;28;43926;-69
2023/05/04 00:42:35;;;;;;;1.20;1.20;;;19.60;67.40;;;;;;5056269;28;45030;-70
2023/05/04 00:45:04;;;;;;;1.30;1.30;;;19.50;67.20;;;;;;5059991;28;43952;-69
2023/05/04 00:47:34;;;;;;;1.20;1.20;;;19.50;67.20;;;;;;5063059;28;43468;-69
2023/05/04 00:50:03;;;;;;;1.20;1.20;;;19.50;67.30;;;;;;5056914;28;46196;-70
2023/05/04 00:52:31;;;;;;;1.10;1.10;;;19.40;67.40;;;;;;5059627;28;43674;-70
2023/05/04 00:55:00;;;;;;;1.20;1.20;;;19.50;67.80;;;;;;5063213;28;43558;-70
2023/05/04 00:57:28;;;;;;;1.20;1.20;;;19.40;67.70;;;;;;5061366;28;43502;-69
2023/05/04 00:59:56;;;;;;;1.00;1.00;;;19.50;67.60;;;;;;5065040;28;44010;-69
2023/05/04 01:02:24;;;;;;;1.20;1.20;;;19.50;67.50;;;;;;5065987;22;44980;-69
2023/05/04 01:04:53;;;;;;;1.20;1.20;;;19.40;67.50;;;;;;5023906;28;43959;-68
2023/05/04 01:07:26;;;;;;;1.20;1.20;;;19.40;67.70;;;;;;5036875;28;43501;-70
2023/05/04 01:09:56;;;;;;;1.10;1.10;;;19.40;67.80;;;;;;5046131;28;43844;-68
2023/05/04 01:12:26;;;;;;;1.10;1.10;;;19.40;67.70;;;;;;5044612;28;44741;-69
2023/05/04 01:14:54;;;;;;;1.10;1.10;;;19.60;67.50;;;;;;5044836;28;43478;-69
2023/05/04 01:17:22;;;;;;;1.20;1.20;;;19.70;67.10;;;;;;5043919;28;43431;-69
2023/05/04 01:19:52;;;;;;;1.13;1.13;;;19.80;66.80;;;;;;5046340;28;43611;-69
2023/05/04 01:22:22;;;;;;;1.20;1.20;;;19.80;66.60;;;;;;5045070;28;45034;-69
2023/05/04 01:24:50;;;;;;;1.37;1.37;;;19.80;66.60;;;;;;5044397;28;43411;-69
2023/05/04 01:27:22;;;;;;;1.10;1.10;;;19.70;66.60;;;;;;5046352;28;43975;-70
2023/05/04 01:29:54;;;;;;;1.20;1.20;;;19.60;66.80;;;;;;5045992;28;43919;-70
2023/05/04 01:32:22;;;;;;;1.10;1.10;;;19.60;67.20;;;;;;5046256;28;43424;-68
2023/05/04 01:34:50;;;;;;;1.10;1.10;;;19.50;67.30;;;;;;5040562;28;43420;-68
2023/05/04 01:37:18;;;;;;;1.10;1.10;;;19.60;67.30;;;;;;5040035;28;43822;-70
2023/05/04 01:39:47;;;;;;;1.30;1.30;;;19.50;67.20;;;;;;5038580;28;45932;-69
2023/05/04 01:42:15;;;;;;;1.23;1.23;;;19.50;67.30;;;;;;5038423;28;44759;-69
2023/05/04 01:44:43;;;;;;;1.23;1.23;;;19.50;67.40;;;;;;5043987;28;43408;-69
2023/05/04 01:47:11;;;;;;;1.27;1.27;;;19.40;67.70;;;;;;5046238;28;43423;-70
2023/05/04 01:49:39;;;;;;;1.13;1.13;;;19.40;67.70;;;;;;5044638;28;45817;-68
2023/05/04 01:52:07;;;;;;;1.40;1.40;;;19.40;67.50;;;;;;5045237;28;43474;-68
2023/05/04 01:54:35;;;;;;;1.20;1.20;;;19.40;67.50;;;;;;5039612;28;43391;-69
2023/05/04 01:57:05;;;;;;;1.17;1.17;;;19.40;67.70;;;;;;5041907;28;43390;-68
2023/05/04 01:59:33;;;;;;;1.20;1.20;;;19.40;67.80;;;;;;5045269;28;44821;-70
2023/05/04 02:02:01;;;;;;;1.00;1.00;;;19.40;67.80;;;;;;5043954;28;44682;-70
2023/05/04 02:04:30;;;;;;;1.30;1.30;;;19.40;67.70;;;;;;5044452;28;43432;-71
2023/05/04 02:06:58;;;;;;;1.20;1.20;;;19.40;67.60;;;;;;5040798;28;43942;-70
2023/05/04 02:09:26;;;;;;;1.13;1.13;;;19.40;67.70;;;;;;5045471;28;45924;-69
2023/05/04 02:11:54;;;;;;;1.20;1.20;;;19.30;67.60;;;;;;5046500;28;43427;-68
2023/05/04 02:14:23;;;;;;;1.00;1.00;;;19.30;67.80;;;;;;5045167;28;43992;-70
2023/05/04 02:16:51;;;;;;;1.13;1.13;;;19.40;67.90;;;;;;5044635;28;44483;-68
2023/05/04 02:19:19;;;;;;;1.13;1.13;;;19.50;67.80;;;;;;5046053;28;44028;-68
2023/05/04 02:21:47;;;;;;;1.10;1.10;;;19.60;67.30;;;;;;5040462;28;44057;-68
2023/05/04 02:24:15;;;;;;;0.93;0.93;;;19.80;66.90;;;;;;5046073;28;43825;-68
2023/05/04 02:26:43;;;;;;;1.40;1.40;;;19.80;66.60;;;;;;5045080;28;44061;-69
2023/05/04 02:29:11;;;;;;;1.27;1.27;;;19.80;66.50;;;;;;5044703;28;44035;-68
2023/05/04 02:31:40;;;;;;;1.00;1.00;;;19.80;66.50;;;;;;5041321;28;44857;-68
2023/05/04 02:34:08;;;;;;;1.20;1.20;;;19.70;66.60;;;;;;5045788;28;43435;-70
2023/05/04 02:36:46;;;;;;;1.20;1.20;;;19.60;66.70;;;;;;5039631;28;43481;-68
2023/05/04 02:39:15;;;;;;;1.17;1.17;;;19.60;67.20;;;;;;5044057;28;43695;-68
2023/05/04 02:41:43;;;;;;;1.27;1.27;;;19.50;67.20;;;;;;5045414;28;43535;-70
2023/05/04 02:44:10;;;;;;;1.20;1.20;;;19.50;67.10;;;;;;5045667;28;43945;-68
2023/05/04 02:46:40;;;;;;;1.20;1.20;;;19.50;67.20;;;;;;5040966;28;43653;-74
2023/05/04 02:49:08;;;;;;;1.10;1.10;;;19.40;67.20;;;;;;5042541;28;43913;-68
2023/05/04 02:51:36;;;;;;;1.20;1.20;;;19.40;67.50;;;;;;5045647;28;44314;-68
2023/05/04 02:54:05;;;;;;;1.50;1.50;;;19.40;67.70;;;;;;5045474;28;43419;-72
2023/05/04 02:56:33;;;;;;;1.00;1.00;;;19.40;67.50;;;;;;5035977;28;43500;-68
2023/05/04 02:59:01;;;;;;;1.20;1.20;;;19.40;67.50;;;;;;5043323;28;45751;-68
2023/05/04 03:01:29;;;;;;;1.20;1.20;;;19.40;67.50;;;;;;5043961;28;44928;-68
2023/05/04 03:04:02;;;;;;;1.30;1.30;;;19.40;67.70;;;;;;5042872;28;43441;-69
2023/05/04 03:06:30;;;;;;;1.17;1.17;;;19.40;67.90;;;;;;5044082;28;43463;-69
2023/05/04 03:08:58;;;;;;;1.20;1.20;;;19.40;67.70;;;;;;5046205;28;44681;-68
2023/05/04 03:11:26;;;;;;;1.20;1.20;;;19.50;67.50;;;;;;5045843;28;43405;-70
2023/05/04 03:13:54;;;;;;;1.10;1.10;;;19.60;67.20;;;;;;5044421;28;43451;-69
2023/05/04 03:16:22;;;;;;;1.30;1.30;;;19.60;67.10;;;;;;5043914;28;43467;-68
2023/05/04 03:18:50;;;;;;;1.13;1.13;;;19.60;67.00;;;;;;5044224;28;45670;-68
2023/05/04 03:21:21;;;;;;;1.20;1.20;;;19.60;67.30;;;;;;5042386;28;44698;-68
2023/05/04 03:23:49;;;;;;;1.10;1.10;;;19.60;67.30;;;;;;5024214;28;43475;-69
2023/05/04 03:26:17;;;;;;;1.20;1.20;;;19.60;67.00;;;;;;5025560;28;43443;-68
2023/05/04 03:28:45;;;;;;;1.10;1.10;;;19.50;67.00;;;;;;5033993;28;45596;-68
2023/05/04 03:31:14;;;;;;;1.10;1.10;;;19.50;67.10;;;;;;5039365;28;43455;-69
2023/05/04 03:33:42;;;;;;;1.30;1.30;;;19.40;67.40;;;;;;5045688;28;43407;-69
2023/05/04 03:36:10;;;;;;;1.27;1.27;;;19.40;67.60;;;;;;5048681;28;43402;-68
2023/05/04 03:38:43;;;;;;;1.20;1.20;;;19.40;67.30;;;;;;5043857;28;46006;-68
2023/05/04 03:41:11;;;;;;;1.20;1.20;;;19.40;67.20;;;;;;5034187;28;43408;-68
2023/05/04 03:43:39;;;;;;;1.07;1.07;;;19.40;67.30;;;;;;5039785;28;43508;-70
2023/05/04 03:46:07;;;;;;;1.17;1.17;;;19.40;67.50;;;;;;5034809;28;43593;-68
2023/05/04 03:48:35;;;;;;;1.03;1.03;;;19.40;67.70;;;;;;5036753;28;43829;-69
2023/05/04 03:51:05;;;;;;;1.20;1.20;;;19.40;67.60;;;;;;5030899;28;45026;-78
2023/05/04 03:53:34;;;;;;;1.20;1.20;;;19.50;67.30;;;;;;5035986;28;44060;-69
2023/05/04 03:56:04;;;;;;;1.10;1.10;;;19.60;67.00;;;;;;5034577;28;43974;-68
2023/05/04 03:58:32;;;;;;;1.20;1.20;;;19.60;66.80;;;;;;5032416;28;45751;-69
2023/05/04 04:01:03;;;;;;;1.30;1.30;;;19.60;67.00;;;;;;5032137;28;43381;-68
2023/05/04 04:03:31;;;;;;;1.10;1.10;;;19.60;67.10;;;;;;5046519;28;43421;-70
2023/05/04 04:06:00;;;;;;;1.17;1.17;;;19.60;67.00;;;;;;5047939;28;43391;-68
2023/05/04 04:08:28;;;;;;;1.00;1.00;;;19.60;66.90;;;;;;5047074;28;43735;-69
2023/05/04 04:10:56;;;;;;;1.10;1.10;;;19.60;67.00;;;;;;5042915;28;43502;-68
2023/05/04 04:13:26;;;;;;;1.30;1.30;;;19.50;67.10;;;;;;5042404;28;43912;-68
2023/05/04 04:15:54;;;;;;;1.20;1.20;;;19.50;67.50;;;;;;5048811;28;43465;-68
2023/05/04 04:18:23;;;;;;;1.03;1.03;;;19.50;67.40;;;;;;5042575;28;43589;-70
2023/05/04 04:20:51;;;;;;;1.10;1.10;;;19.40;67.20;;;;;;5047818;28;43473;-69
2023/05/04 04:23:18;;;;;;;1.13;1.13;;;19.50;67.30;;;;;;5034332;28;43492;-68
2023/05/04 04:25:46;;;;;;;1.20;1.20;;;19.40;67.40;;;;;;5032559;28;43555;-69
2023/05/04 04:28:15;;;;;;;1.00;1.00;;;19.40;67.70;;;;;;5043720;28;43903;-68
2023/05/04 04:30:44;;;;;;;1.30;1.30;;;19.40;67.70;;;;;;5048280;28;43991;-69
2023/05/04 04:33:12;;;;;;;1.13;1.13;;;19.40;67.50;;;;;;5047944;28;43425;-68
2023/05/04 04:35:40;;;;;;;1.10;1.10;;;19.40;67.30;;;;;;5036743;28;43466;-68
2023/05/04 04:38:08;;;;;;;1.10;1.10;;;19.40;67.30;;;;;;5029288;28;43680;-68
2023/05/04 04:40:36;;;;;;;1.30;1.30;;;19.40;67.50;;;;;;5032353;28;43507;-68
2023/05/04 04:43:04;;;;;;;1.20;1.20;;;19.40;67.60;;;;;;5042613;28;43446;-68
2023/05/04 04:45:32;;;;;;;1.20;1.20;;;19.40;67.60;;;;;;5044385;28;43531;-68
2023/05/04 04:48:02;;;;;;;1.30;1.30;;;19.50;67.20;;;;;;5040438;28;43644;-70
2023/05/04 04:50:31;;;;;;;1.20;1.20;;;19.70;67.00;;;;;;5043943;28;44028;-68
2023/05/04 04:52:59;;;;;;;1.30;1.30;;;19.80;66.60;;;;;;5047701;28;43333;-69
2023/05/04 04:55:26;;;;;;;1.10;1.10;;;19.80;66.30;;;;;;5045311;28;43448;-69
2023/05/04 04:57:54;;;;;;;1.00;1.00;;;19.80;66.00;;;;;;5039073;28;43938;-68
2023/05/04 05:00:22;;;;;;;1.20;1.20;;;19.70;65.90;;;;;;5047646;28;43408;-68
2023/05/04 05:02:50;;;;;;;1.23;1.23;;;19.70;66.20;;;;;;5046867;28;43474;-68
2023/05/04 05:05:20;;;;;;;1.13;1.13;;;19.60;66.40;;;;;;5048016;28;43408;-71
2023/05/04 05:07:48;;;;;;;1.20;1.20;;;19.60;67.00;;;;;;5046878;28;44358;-68
2023/05/04 05:10:16;;;;;;;1.30;1.30;;;19.50;66.60;;;;;;5042613;28;43825;-68
2023/05/04 05:12:44;;;;;;;1.20;1.20;;;19.50;66.50;;;;;;5045821;28;43424;-69
2023/05/04 05:15:12;;;;;;;0.90;0.90;;;19.50;66.60;;;;;;5029961;28;43455;-69
2023/05/04 05:17:40;;;;;;;1.20;1.20;;;19.40;66.70;;;;;;5035295;28;43596;-68
2023/05/04 05:20:10;;;;;;;1.23;1.23;;;19.40;67.30;;;;;;5026410;28;43819;-69
2023/05/04 05:22:42;;;;;;;1.20;1.20;;;19.40;67.20;;;;;;5028985;28;43997;-70
2023/05/04 05:25:11;;;;;;;1.00;1.00;;;19.40;66.70;;;;;;5044696;28;43893;-70
2023/05/04 05:27:39;;;;;;;1.20;1.20;;;19.40;66.80;;;;;;5044211;28;45803;-68
2023/05/04 05:30:07;;;;;;;1.30;1.30;;;19.40;66.90;;;;;;5031828;28;43463;-68
2023/05/04 05:32:35;;;;;;;1.30;1.30;;;19.40;67.10;;;;;;5031755;28;43956;-67
2023/05/04 05:35:05;;;;;;;1.30;1.30;;;19.40;67.50;;;;;;5032486;28;43397;-70
2023/05/04 05:37:33;;;;;;;1.37;1.37;;;19.40;67.40;;;;;;5033152;28;43602;-69
2023/05/04 05:40:05;;;;;;;1.27;1.27;;;19.50;67.10;;;;;;5036419;28;43496;-68
2023/05/04 05:42:35;;;;;;;1.23;1.20;;;19.60;66.70;;;;;;5047393;28;43974;-70
2023/05/04 05:45:04;;;;;;;1.27;1.27;;;19.70;66.40;;;;;;5047241;28;43414;-67
2023/05/04 05:47:32;;;;;;;1.13;1.13;;;19.80;66.30;;;;;;5047056;28;43960;-67
2023/05/04 05:50:00;;;;;;;1.30;1.30;;;19.70;66.00;;;;;;5046483;28;43463;-67
2023/05/04 05:52:28;;;;;;;1.20;1.20;;;19.60;66.10;;;;;;5034838;28;43396;-70
2023/05/04 05:54:55;;;;;;;1.50;1.50;;;19.60;66.40;;;;;;5047400;28;43426;-68
2023/05/04 05:57:25;;;;;;;1.30;1.30;;;19.50;66.90;;;;;;5035630;28;43889;-68
2023/05/04 05:59:53;;;;;;;1.27;1.27;;;19.50;66.90;;;;;;5046095;28;43964;-74
2023/05/04 06:02:21;;;;;;;1.10;1.10;;;19.40;66.60;;;;;;5039436;28;43478;-68
2023/05/04 06:04:49;;;;;;;1.23;1.23;;;19.40;66.60;;;;;;5046740;28;43490;-67
2023/05/04 06:07:18;;;;;;;1.30;1.30;;;19.40;66.70;;;;;;5034625;28;44142;-69
2023/05/04 06:09:46;;;;;;;1.30;1.30;;;19.40;67.20;;;;;;5035211;28;44699;-68
2023/05/04 06:12:15;;;;;;;1.23;1.23;;;19.40;67.30;;;;;;5045937;28;43423;-69
2023/05/04 06:14:46;;;;;;;1.30;1.30;;;19.40;66.90;;;;;;5045685;28;43397;-69
2023/05/04 06:17:14;;;;;;;1.30;1.30;;;19.40;66.80;;;;;;5037199;28;43845;-68
2023/05/04 06:19:43;;;;;;;1.23;1.23;;;19.40;66.90;;;;;;5040298;28;43435;-69
2023/05/04 06:22:11;;;;;;;1.20;1.20;;;19.30;67.00;;;;;;5036952;28;43394;-68
2023/05/04 06:24:39;;;;;;;1.30;1.30;;;19.30;67.40;;;;;;5031922;28;43454;-69
2023/05/04 06:27:07;;;;;;;1.30;1.30;;;19.40;67.40;;;;;;5037231;28;43928;-69
2023/05/04 06:29:37;;;;;;;1.23;1.23;;;19.50;67.10;;;;;;5041400;28;43319;-69
2023/05/04 06:32:06;;;;;;;1.13;1.13;;;19.60;66.60;;;;;;5034016;28;43439;-69
2023/05/04 06:34:34;;;;;;;1.20;1.20;;;19.80;66.50;;;;;;5042140;28;43980;-69
2023/05/04 06:37:02;;;;;;;1.40;1.40;;;19.80;66.10;;;;;;5042018;28;43867;-68
2023/05/04 06:39:30;;;;;;;1.40;1.40;;;19.70;65.90;;;;;;5046281;28;43982;-68
2023/05/04 06:41:58;;;;;;;1.13;1.13;;;19.60;65.90;;;;;;5042752;28;43409;-70
2023/05/04 06:44:27;;;;;;;1.37;1.37;;;19.60;66.20;;;;;;5045511;28;43565;-68
2023/05/04 06:46:55;;;;;;;1.37;1.37;;;19.50;66.70;;;;;;5044668;28;46008;-68
2023/05/04 06:49:24;;;;;;;1.30;1.30;;;19.50;66.90;;;;;;5042758;28;43587;-70
2023/05/04 06:51:52;;;;;;;1.60;1.50;;;19.50;66.70;;;;;;5046177;28;43363;-70
2023/05/04 06:54:21;;;;;;;1.80;1.70;;;19.50;66.80;;;;;;5046185;28;43475;-69
2023/05/04 06:56:51;;;;;;;2.20;2.00;;;19.40;66.80;;;;;;5040964;28;43608;-70
2023/05/04 06:59:20;;;;;;;2.60;2.40;;;19.40;67.10;;;;;;5032718;28;43456;-69
2023/05/04 07:01:48;;;;;;;4.97;3.13;;;19.40;67.40;;;;;;5034376;28;44008;-68
2023/05/04 07:04:16;;;;;;;3.23;2.77;;;19.40;67.20;;;;;;5032605;28;43584;-70
2023/05/04 07:06:45;;;;;;;3.63;3.10;;;19.30;67.00;;;;;;5041449;28;43854;-68
2023/05/04 07:09:13;;;;;;;3.40;2.93;;;19.30;67.10;;;;;;5034353;28;43928;-68
2023/05/04 07:11:41;;;;;;;6.57;3.60;;;19.30;67.20;;;;;;5034676;28;43356;-68
2023/05/04 07:14:10;;;;;;;8.37;4.00;;;19.30;67.60;;;;;;5035318;28;43534;-68
2023/05/04 07:16:38;;;;;;;9.13;4.17;;;19.30;67.60;;;;;;5032381;28;43913;-70
2023/05/04 07:19:06;;;;;;;5.50;4.30;;;19.40;67.40;;;;;;5033244;28;44359;-72
2023/05/04 07:21:34;;;;;;;7.83;4.23;;;19.50;67.10;;;;;;5044494;28;43415;-68
2023/05/04 07:24:04;;;;;;;9.07;4.63;;;19.60;67.00;;;;;;5046041;28;43493;-68
2023/05/04 07:26:31;;;;;;;6.93;4.17;;;19.50;66.60;;;;;;5041021;28;43853;-69
2023/05/04 07:28:59;;;;;;;7.70;4.47;;;19.50;67.00;;;;;;5048638;28;43574;-70
2023/05/04 07:31:30;;;;;;;7.20;4.10;;;19.50;66.90;;;;;;5048062;28;44009;-68
2023/05/04 07:33:58;;;;;;;6.97;4.47;;;19.50;66.80;;;;;;5049286;28;43416;-68
2023/05/04 07:36:26;;;;;;;5.73;4.10;;;19.50;66.80;;;;;;5049317;28;43980;-69
2023/05/04 07:38:54;;;;;;;8.87;4.30;;;19.50;67.00;;;;;;5044218;28;43405;-68
2023/05/04 07:41:23;;;;;;;9.97;4.70;;;19.40;67.20;;;;;;5049099;28;43457;-68
2023/05/04 07:43:51;;;;;;;6.87;4.30;;;19.40;67.40;;;;;;5049099;28;43470;-69
2023/05/04 07:46:19;;;;;;;7.50;4.13;;;19.40;67.30;;;;;;5047137;28;43599;-69
2023/05/04 07:48:48;;;;;;;6.50;4.37;;;19.40;67.20;;;;;;5041642;28;43471;-69
2023/05/04 07:51:16;;;;;;;6.63;4.03;;;19.30;67.20;;;;;;5045169;28;43877;-69
2023/05/04 07:53:44;;;;;;;7.03;4.27;;;19.30;67.40;;;;;;5049160;28;43402;-68
2023/05/04 07:56:12;;;;;;;5.83;4.47;;;19.30;67.60;;;;;;5047383;28;43698;-69
2023/05/04 07:58:41;;;;;;;5.60;4.27;;;19.30;67.60;;;;;;5035681;28;43820;-69
2023/05/04 08:01:09;;;;;;;9.43;4.60;;;19.40;68.20;;;;;;5043192;28;43376;-69
2023/05/04 08:03:37;;;;;;;5.87;4.53;;;19.40;67.10;;;;;;5048382;28;43466;-73
2023/05/04 08:06:05;;;;;;;7.13;4.77;;;19.50;67.00;;;;;;5047695;28;44023;-69
2023/05/04 08:08:33;;;;;;;5.87;4.10;;;19.50;66.80;;;;;;5044199;28;43534;-69
2023/05/04 08:11:01;;;;;;;7.37;4.43;;;19.50;67.10;;;;;;5048129;28;43428;-68
2023/05/04 08:13:49;;;;;;;7.57;4.27;;;19.50;67.20;;;;;;5047316;28;44059;-69
2023/05/04 08:16:17;;;;;;;5.70;4.10;;;19.40;66.90;;;;;;5048474;28;43935;-67
2023/05/04 08:18:47;;;;;;;4.00;3.67;;;19.40;67.00;;;;;;5048048;28;43436;-68
2023/05/04 08:21:15;;;;;;;7.30;4.53;;;19.40;67.10;;;;;;5048311;28;43420;-69
2023/05/04 08:23:43;;;;;;;6.77;4.10;;;19.40;67.40;;;;;;5047093;28;44267;-69
2023/05/04 08:26:11;;;;;;;6.43;4.17;;;19.40;67.50;;;;;;5044429;28;43987;-68
2023/05/04 08:28:40;;;;;;;6.47;4.30;;;19.40;67.30;;;;;;5047106;28;43518;-69
2023/05/04 08:31:12;;;;;;;4.27;3.83;;;19.30;67.30;;;;;;5048163;28;43477;-71
2023/05/04 08:33:40;;;;;;;4.50;4.10;;;19.30;67.40;;;;;;5044116;28;44529;-68
2023/05/04 08:36:08;;;;;;;4.87;4.33;;;19.30;67.50;;;;;;5047829;28;43681;-68
2023/05/04 08:38:36;;;;;;;6.27;4.23;;;19.30;67.70;;;;;;5035478;28;43466;-68
2023/05/04 08:41:04;;;;;;;4.73;4.00;;;19.40;67.70;;;;;;5035959;28;43419;-69
2023/05/04 08:43:34;;;;;;;4.13;3.70;;;19.40;67.40;;;;;;5035476;28;43491;-69
2023/05/04 08:46:03;;;;;;;5.67;3.90;;;19.60;67.10;;;;;;5040233;28;44054;-69
2023/05/04 08:48:33;;;;;;;4.83;4.07;;;19.60;66.70;;;;;;5047868;28;43541;-69
2023/05/04 08:51:02;;;;;;;5.00;3.97;;;19.60;66.60;;;;;;5047558;28;43511;-69
2023/05/04 08:53:30;;;;;;;4.20;3.90;;;19.60;66.60;;;;;;5048779;28;43435;-69
2023/05/04 08:56:02;;;;;;;6.60;4.37;;;19.50;66.60;;;;;;5045421;28;43752;-68
2023/05/04 08:58:30;;;;;;;4.97;4.03;;;19.50;66.80;;;;;;5042352;28;44072;-69
2023/05/04 09:00:59;;;;;;;5.03;3.53;;;19.40;67.20;;;;;;5047761;28;43912;-69
2023/05/04 09:03:27;;;;;;;4.07;3.73;;;19.40;67.30;;;;;;5043516;28;44007;-68
2023/05/04 09:05:56;;;;;;;3.83;3.53;;;19.40;67.20;;;;;;5045925;28;43620;-68
2023/05/04 09:08:24;;;;;;;4.77;3.83;;;19.40;67.20;;;;;;5043502;28;44862;-70
2023/05/04 09:10:52;;;;;;;4.37;3.70;;;19.40;67.30;;;;;;5046711;28;43490;-68
2023/05/04 09:13:20;;;;;;;5.20;3.87;;;19.30;67.30;;;;;;5048064;28;43494;-68
2023/05/04 09:15:55;;;;;;;4.07;3.63;;;19.30;67.60;;;;;;5033636;28;45639;-68
2023/05/04 09:18:23;;;;;;;4.30;3.90;;;19.30;67.60;;;;;;5047179;28;43457;-70
2023/05/04 09:20:51;;;;;;;4.63;3.80;;;19.30;67.60;;;;;;5046221;28;43477;-69
2023/05/04 09:23:21;;;;;;;3.87;3.57;;;19.30;67.60;;;;;;5043914;28;43534;-69
2023/05/04 09:25:49;;;;;;;4.77;4.00;;;19.30;67.60;;;;;;5045296;28;43905;-69
2023/05/04 09:28:18;;;;;;;3.57;3.37;;;19.30;67.60;;;;;;5046970;28;43830;-69
2023/05/04 09:30:47;;;;;;;5.00;3.73;;;19.30;67.70;;;;;;5047407;28;43696;-70
2023/05/04 09:33:15;;;;;;;5.27;3.37;;;19.30;67.60;;;;;;5046319;28;43585;-69
2023/05/04 09:35:44;;;;;;;3.97;3.67;;;19.40;67.00;;;;;;5046982;28;43928;-68
2023/05/04 09:38:13;;;;;;;5.90;3.77;;;19.50;66.90;;;;;;5042639;28;43440;-68
2023/05/04 09:40:42;;;;;;;3.87;3.40;;;19.50;66.90;;;;;;5046795;28;43370;-69
2023/05/04 09:43:12;;;;;;;3.80;3.50;;;19.40;67.10;;;;;;5047437;28;43519;-71
2023/05/04 09:45:40;;;;;;;4.10;3.70;;;19.40;67.20;;;;;;5046512;28;43962;-68
2023/05/04 09:48:18;;;;;;;3.97;3.60;;;19.40;67.10;;;;;;5046604;28;43333;-68
2023/05/04 09:50:51;;;;;;;3.37;3.13;;;19.40;67.10;;;;;;5036573;28;43459;-69
2023/05/04 09:53:20;;;;;;;3.40;3.10;;;19.40;67.20;;;;;;5046287;28;43403;-68
2023/05/04 09:55:54;;;;;;;3.87;3.57;;;19.30;67.30;;;;;;5047228;28;43605;-68
2023/05/04 09:58:22;;;;;;;3.50;3.20;;;19.30;67.60;;;;;;5039440;28;43428;-68
2023/05/04 10:00:51;;;;;;;3.37;3.13;;;19.30;67.40;;;;;;5034927;28;43590;-68
2023/05/04 10:03:19;;;;;;;3.70;3.37;;;19.30;67.40;;;;;;5041843;28;44127;-70
2023/05/04 10:05:47;;;;;;;3.30;3.10;;;19.30;67.50;;;;;;5042556;28;43941;-68
2023/05/04 10:08:16;;;;;;;3.90;3.60;;;19.30;67.60;;;;;;5046303;28;43431;-68
2023/05/04 10:10:44;;;;;;;3.87;3.57;;;19.30;67.80;;;;;;5046718;28;43367;-68
2023/05/04 10:13:13;;;;;;;3.30;3.10;;;19.30;67.60;;;;;;5046486;28;43446;-67
2023/05/04 10:15:47;;;;;;;3.30;3.10;;;19.40;67.50;;;;;;5046392;28;43592;-68
2023/05/04 10:18:17;;;;;;;3.17;2.90;;;19.50;67.20;;;;;;5044848;28;44963;-68
2023/05/04 10:20:53;;;;;;;2.90;2.70;;;19.50;66.90;;;;;;5042822;28;44036;-68
2023/05/04 10:23:53;;;;;;;3.53;3.30;;;19.50;66.80;;;;;;5046399;28;43459;-69
2023/05/04 10:26:41;;;;;;;3.57;3.23;;;19.50;67.10;;;;;;5035297;28;43968;-68
2023/05/04 10:29:18;;;;;;;3.30;2.97;;;19.50;67.00;;;;;;5046197;28;43479;-68
2023/05/04 10:31:50;;;;;;;2.83;2.67;;;19.50;67.10;;;;;;5032369;28;43524;-68
2023/05/04 10:34:25;;;;;;;3.27;3.07;;;19.40;67.20;;;;;;5029288;28;43591;-69
2023/05/04 10:36:53;;;;;;;3.43;3.03;;;19.40;67.30;;;;;;5029794;28;43748;-68
2023/05/04 10:39:21;;;;;;;3.33;3.03;;;19.40;67.40;;;;;;5031669;28;45131;-69
2023/05/04 10:41:59;;;;;;;2.93;2.83;;;19.40;67.40;;;;;;5031471;28;43408;-70
2023/05/04 10:44:29;;;;;;;3.47;3.17;;;19.30;67.40;;;;;;5029211;28;43896;-69
2023/05/04 10:47:06;;;;;;;3.07;2.93;;;19.30;67.50;;;;;;5029986;28;43832;-68
2023/05/04 10:49:35;;;;;;;3.23;3.03;;;19.30;67.60;;;;;;5030368;28;43924;-69
2023/05/04 10:52:08;;;;;;;3.30;3.10;;;19.30;67.60;;;;;;5026016;28;43726;-68
2023/05/04 10:54:36;;;;;;;2.80;2.60;;;19.30;67.60;;;;;;5032904;28;44063;-70
2023/05/04 10:57:05;;;;;;;3.00;2.80;;;19.30;67.50;;;;;;5032041;28;43792;-69
2023/05/04 10:59:35;;;;;;;3.10;2.90;;;19.50;67.50;;;;;;5030296;28;43462;-69
2023/05/04 11:02:04;;;;;;;3.07;2.97;;;19.50;67.10;;;;;;5030599;28;43843;-69
2023/05/04 11:04:32;;;;;;;3.00;2.90;;;19.50;67.20;;;;;;5032223;28;44036;-69
2023/05/04 11:07:01;;;;;;;2.80;2.60;;;19.50;67.20;;;;;;5030411;28;43932;-69
2023/05/04 11:09:35;;;;;;;3.13;2.90;;;19.40;67.00;;;;;;5030420;28;43503;-69
2023/05/04 11:12:03;;;;;;;2.50;2.40;;;19.50;67.20;;;;;;5029304;28;43938;-68
2023/05/04 11:14:36;;;;;;;2.67;2.57;;;19.50;67.30;;;;;;5032334;28;43401;-68
2023/05/04 11:17:08;;;;;;;2.67;2.50;;;19.40;67.30;;;;;;5031265;28;43885;-68
2023/05/04 11:19:54;;;;;;;2.67;2.50;;;19.40;67.40;;;;;;5031420;28;43385;-69
2023/05/04 11:22:22;;;;;;;2.57;2.47;;;19.40;67.40;;;;;;5028251;28;43314;-69
2023/05/04 11:24:50;;;;;;;2.60;2.50;;;19.40;67.50;;;;;;5032510;28;43362;-69
2023/05/04 11:27:22;;;;;;;2.70;2.60;;;19.40;67.50;;;;;;5035129;28;44003;-68
2023/05/04 11:29:56;;;;;;;2.90;2.80;;;19.30;67.50;;;;;;5041496;28;43443;-67
2023/05/04 11:32:34;;;;;;;2.60;2.50;;;19.30;67.60;;;;;;5044057;28;44048;-69
2023/05/04 11:35:03;;;;;;;2.90;2.70;;;19.30;67.60;;;;;;5037178;28;43499;-69
2023/05/04 11:37:37;;;;;;;2.70;2.60;;;19.30;67.60;;;;;;5030547;28;43607;-69
2023/05/04 11:40:09;;;;;;;2.40;2.30;;;19.30;67.60;;;;;;5043575;28;43484;-72
2023/05/04 11:42:38;;;;;;;2.70;2.60;;;19.30;67.60;;;;;;5035002;28;43862;-76
2023/05/04 11:45:08;;;;;;;2.83;2.63;;;19.30;67.70;;;;;;5038963;28;43489;-69
2023/05/04 11:47:38;;;;;;;2.90;2.70;;;19.30;67.10;;;;;;5027064;28;43920;-69
2023/05/04 11:50:07;;;;;;;4.53;2.77;;;19.30;67.20;;;;;;5025958;28;45578;-69
2023/05/04 11:52:35;;;;;;;2.97;2.67;;;19.40;67.20;;;;;;5030312;28;43381;-69
2023/05/04 11:55:03;;;;;;;3.00;2.80;;;19.50;67.00;;;;;;5040475;28;44509;-70
2023/05/04 11:57:32;;;;;;;4.60;2.50;;;19.60;66.60;;;;;;5026271;28;43599;-70
2023/05/04 11:59:59;;;;;;;5.93;2.70;;;19.70;66.50;;;;;;5034695;28;43392;-69
2023/05/04 12:02:27;;;;;;;3.23;2.80;;;19.70;66.40;;;;;;5036082;28;43858;-69
2023/05/04 12:04:57;;;;;;;2.70;2.50;;;19.60;66.50;;;;;;5036043;28;43372;-69
2023/05/04 12:07:25;;;;;;;3.50;2.90;;;19.60;66.70;;;;;;5040436;28;44109;-68
2023/05/04 12:09:53;;;;;;;2.43;2.23;;;19.50;66.90;;;;;;5048625;28;43540;-69
2023/05/04 12:12:21;;;;;;;5.40;2.60;;;19.50;67.10;;;;;;5043749;28;43375;-69
2023/05/04 12:14:50;;;;;;;2.90;2.70;;;19.40;67.10;;;;;;5042542;28;43452;-69
2023/05/04 12:17:19;;;;;;;3.43;3.13;;;19.40;67.20;;;;;;5048235;28;43920;-68
2023/05/04 12:19:48;;;;;;;2.47;2.30;;;19.40;67.20;;;;;;5042144;28;43857;-68
2023/05/04 12:22:17;;;;;;;2.77;2.53;;;19.40;67.40;;;;;;5048472;28;43398;-67
2023/05/04 12:24:45;;;;;;;2.57;2.43;;;19.40;67.50;;;;;;5048759;28;43430;-68
2023/05/04 12:27:13;;;;;;;2.20;2.17;;;19.40;67.70;;;;;;5038670;28;44166;-68
2023/05/04 12:29:41;;;;;;;2.30;2.20;;;19.40;67.70;;;;;;5030542;28;43345;-69
2023/05/04 12:32:09;;;;;;;2.30;2.20;;;19.40;67.70;;;;;;5034022;28;43480;-69
2023/05/04 12:34:37;;;;;;;5.73;2.83;;;19.30;67.60;;;;;;5039320;28;44056;-68
2023/05/04 12:37:05;;;;;;;5.23;2.60;;;19.30;67.60;;;;;;5033754;28;43899;-68
2023/05/04 12:39:34;;;;;;;2.53;2.33;;;19.30;67.60;;;;;;5035683;28;43985;-68
2023/05/04 12:42:03;;;;;;;2.20;2.10;;;19.40;67.70;;;;;;5038049;28;43356;-68
2023/05/04 12:44:32;;;;;;;2.73;2.53;;;19.40;67.70;;;;;;5031525;28;43914;-69
2023/05/04 12:47:01;;;;;;;2.47;2.37;;;19.40;67.80;;;;;;5036201;28;43619;-73
2023/05/04 12:49:29;;;;;;;2.30;2.20;;;19.30;67.70;;;;;;5033529;28;43605;-70
2023/05/04 12:51:57;;;;;;;2.33;2.27;;;19.30;67.80;;;;;;5035605;28;43396;-69
2023/05/04 12:54:25;;;;;;;2.43;2.33;;;19.40;67.90;;;;;;5032310;28;43495;-69
2023/05/04 12:56:55;;;;;;;2.40;2.30;;;19.40;67.70;;;;;;5030617;28;43905;-69